createdAt,value
2017-09-04T00:00:36.399Z,8.40
2017-09-04T00:03:03.008Z,8.70
2017-09-04T00:05:29.632Z,8.03
2017-09-04T00:07:56.257Z,9.70
2017-09-04T00:10:22.898Z,9.00
2017-09-04T00:12:49.511Z,8.23
2017-09-04T00:15:16.135Z,8.73
2017-09-04T00:17:42.758Z,8.83
2017-09-04T00:20:09.415Z,10.00
2017-09-04T00:22:36.019Z,8.33
2017-09-04T00:25:02.651Z,7.27
2017-09-04T00:27:29.270Z,7.20
2017-09-04T00:29:55.878Z,7.70
2017-09-04T00:32:22.490Z,7.80
2017-09-04T00:34:49.096Z,7.13
2017-09-04T00:37:15.727Z,6.90
2017-09-04T00:39:42.355Z,8.47
2017-09-04T00:42:08.972Z,7.67
2017-09-04T00:44:35.582Z,8.00
2017-09-04T00:47:02.172Z,7.50
2017-09-04T00:49:28.835Z,7.57
2017-09-04T00:51:55.467Z,6.97
2017-09-04T00:54:22.114Z,6.47
2017-09-04T00:56:48.711Z,6.13
2017-09-04T00:59:15.322Z,8.33
2017-09-04T01:01:41.979Z,6.60
2017-09-04T01:04:08.610Z,5.30
2017-09-04T01:06:35.236Z,7.70
2017-09-04T01:09:01.835Z,9.73
2017-09-04T01:11:28.498Z,9.70
2017-09-04T01:13:55.138Z,6.97
2017-09-04T01:16:21.739Z,6.70
2017-09-04T01:18:48.357Z,4.77
2017-09-04T01:21:15.018Z,9.00
2017-09-04T01:23:41.651Z,8.37
2017-09-04T01:26:08.257Z,6.70
2017-09-04T01:28:34.920Z,4.80
2017-09-04T01:31:01.540Z,5.20
2017-09-04T01:33:28.149Z,6.97
2017-09-04T01:35:54.770Z,6.77
2017-09-04T01:38:21.392Z,7.50
2017-09-04T01:40:48.048Z,7.37
2017-09-04T01:43:14.674Z,5.90
2017-09-04T01:45:41.302Z,6.77
2017-09-04T01:48:07.954Z,7.00
2017-09-04T01:50:34.586Z,7.47
2017-09-04T01:53:01.215Z,8.30
2017-09-04T01:55:27.839Z,9.17
2017-09-04T01:57:54.454Z,9.13
2017-09-04T02:00:21.102Z,7.93
2017-09-04T02:02:47.739Z,9.37
2017-09-04T02:05:14.354Z,9.00
2017-09-04T02:07:41.011Z,8.80
2017-09-04T02:10:07.603Z,8.77
2017-09-04T02:12:34.206Z,8.30
2017-09-04T02:15:00.878Z,9.10
2017-09-04T02:17:27.508Z,9.20
2017-09-04T02:19:54.133Z,10.50
2017-09-04T02:22:20.762Z,10.87
2017-09-04T02:24:47.534Z,10.80
2017-09-04T02:27:14.171Z,11.00
2017-09-04T02:29:40.820Z,10.73
2017-09-04T02:32:07.450Z,10.20
2017-09-04T02:34:34.074Z,9.53
2017-09-04T02:37:00.716Z,11.33
2017-09-04T02:39:27.368Z,9.37
2017-09-04T02:41:53.976Z,8.47
2017-09-04T02:44:20.619Z,9.17
2017-09-04T02:46:47.257Z,9.30
2017-09-04T02:49:13.937Z,8.73
2017-09-04T02:51:40.550Z,8.77
2017-09-04T02:54:07.185Z,10.20
2017-09-04T02:56:33.819Z,7.90
2017-09-04T02:59:00.429Z,8.50
2017-09-04T03:01:27.066Z,7.27
2017-09-04T03:03:53.684Z,8.53
2017-09-04T03:06:20.406Z,7.90
2017-09-04T03:08:47.040Z,8.87
2017-09-04T03:11:13.721Z,8.73
2017-09-04T03:13:40.334Z,8.10
2017-09-04T03:16:07.022Z,9.20
2017-09-04T03:18:33.682Z,9.33
2017-09-04T03:21:00.367Z,9.23
2017-09-04T03:23:27.025Z,9.13
2017-09-04T03:25:53.713Z,9.97
2017-09-04T03:28:20.334Z,9.23
2017-09-04T03:30:46.983Z,9.67
2017-09-04T03:33:13.607Z,9.17
2017-09-04T03:35:40.235Z,8.10
2017-09-04T03:38:06.865Z,9.83
2017-09-04T03:40:33.494Z,9.10
2017-09-04T03:43:00.141Z,8.33
2017-09-04T03:45:26.787Z,9.07
2017-09-04T03:47:53.422Z,9.10
2017-09-04T03:50:20.043Z,8.23
2017-09-04T03:52:46.662Z,9.17
2017-09-04T03:55:13.306Z,8.30
2017-09-04T03:57:39.920Z,8.27
2017-09-04T04:00:06.555Z,8.20
2017-09-04T04:02:33.188Z,8.23
2017-09-04T04:04:59.790Z,8.40
2017-09-04T04:07:26.435Z,8.27
2017-09-04T04:09:53.050Z,7.57
2017-09-04T04:12:19.702Z,7.73
2017-09-04T04:14:46.329Z,8.37
2017-09-04T04:17:12.961Z,8.50
2017-09-04T04:19:39.586Z,8.93
2017-09-04T04:22:06.198Z,9.13
2017-09-04T04:24:32.831Z,9.77
2017-09-04T04:26:59.475Z,8.43
2017-09-04T04:29:26.110Z,9.10
2017-09-04T04:31:52.703Z,8.87
2017-09-04T04:34:19.350Z,7.73
2017-09-04T04:36:45.975Z,9.10
2017-09-04T04:39:12.586Z,9.70
2017-09-04T04:41:39.195Z,9.10
2017-09-04T04:44:05.841Z,8.67
2017-09-04T04:46:32.458Z,7.87
2017-09-04T04:48:59.116Z,8.50
2017-09-04T04:51:25.728Z,8.60
2017-09-04T04:53:52.358Z,10.13
2017-09-04T04:56:18.971Z,9.17
2017-09-04T04:58:45.588Z,8.73
2017-09-04T05:01:12.219Z,9.07
2017-09-04T05:03:38.844Z,10.20
2017-09-04T05:06:05.501Z,9.63
2017-09-04T05:08:32.124Z,10.30
2017-09-04T05:10:58.743Z,9.20
2017-09-04T05:13:25.403Z,9.30
2017-09-04T05:15:52.051Z,9.13
2017-09-04T05:18:18.689Z,8.70
2017-09-04T05:20:45.319Z,9.03
2017-09-04T05:23:11.947Z,11.00
2017-09-04T05:25:38.591Z,10.03
2017-09-04T05:28:05.231Z,11.03
2017-09-04T05:30:31.871Z,10.20
2017-09-04T05:32:58.501Z,11.80
2017-09-04T05:35:25.145Z,10.60
2017-09-04T05:37:51.760Z,9.87
2017-09-04T05:40:18.412Z,11.70
2017-09-04T05:42:45.039Z,10.40
2017-09-04T05:45:11.695Z,10.97
2017-09-04T05:47:38.351Z,10.83
2017-09-04T05:50:05.001Z,11.17
2017-09-04T05:52:31.623Z,11.07
2017-09-04T05:54:58.246Z,10.70
2017-09-04T05:57:24.895Z,10.00
2017-09-04T05:59:51.838Z,11.43
2017-09-04T06:02:18.441Z,12.90
2017-09-04T06:04:45.078Z,11.30
2017-09-04T06:07:11.701Z,11.83
2017-09-04T06:09:38.347Z,11.37
2017-09-04T06:12:04.987Z,11.10
2017-09-04T06:14:31.618Z,10.53
2017-09-04T06:16:58.235Z,11.40
2017-09-04T06:19:24.889Z,10.50
2017-09-04T06:21:51.539Z,10.90
2017-09-04T06:24:18.200Z,10.57
2017-09-04T06:26:44.813Z,10.20
2017-09-04T06:29:11.439Z,9.67
2017-09-04T06:31:38.107Z,10.60
2017-09-04T06:34:04.736Z,10.10
2017-09-04T06:36:31.351Z,10.07
2017-09-04T06:39:00.098Z,10.00
2017-09-04T06:41:29.513Z,10.00
2017-09-04T06:43:56.146Z,8.43
2017-09-04T06:46:22.774Z,10.87
2017-09-04T06:48:49.419Z,9.67
2017-09-04T06:51:16.075Z,10.20
2017-09-04T06:53:42.706Z,11.67
2017-09-04T06:56:09.349Z,10.27
2017-09-04T06:58:35.967Z,10.83
2017-09-04T07:01:02.631Z,10.53
2017-09-04T07:03:29.234Z,10.87
2017-09-04T07:05:55.887Z,12.00
2017-09-04T07:08:22.502Z,12.20
2017-09-04T07:10:49.164Z,12.00
2017-09-04T07:13:15.800Z,12.73
2017-09-04T07:15:42.471Z,11.87
2017-09-04T07:18:09.107Z,12.83
2017-09-04T07:20:35.769Z,12.53
2017-09-04T07:23:02.392Z,11.00
2017-09-04T07:25:29.018Z,12.87
2017-09-04T07:27:55.689Z,12.13
2017-09-04T07:30:22.342Z,12.33
2017-09-04T07:32:48.967Z,11.90
2017-09-04T07:35:15.598Z,11.40
2017-09-04T07:37:42.243Z,11.00
2017-09-04T07:40:08.886Z,11.20
2017-09-04T07:42:35.527Z,13.20
2017-09-04T07:45:02.156Z,11.77
2017-09-04T07:47:28.816Z,10.73
2017-09-04T07:49:55.467Z,14.13
2017-09-04T07:52:22.128Z,11.43
2017-09-04T07:54:48.760Z,12.80
2017-09-04T07:57:15.389Z,12.17
2017-09-04T07:59:42.010Z,11.23
2017-09-04T08:02:08.650Z,13.00
2017-09-04T08:04:35.278Z,11.97
2017-09-04T08:07:01.918Z,11.87
2017-09-04T08:09:28.539Z,12.73
2017-09-04T08:11:55.177Z,13.10
2017-09-04T08:14:21.803Z,13.40
2017-09-04T08:16:48.434Z,12.43
2017-09-04T08:19:15.082Z,12.93
2017-09-04T08:21:41.700Z,13.10
2017-09-04T08:24:08.339Z,13.23
2017-09-04T08:26:34.962Z,13.80
2017-09-04T08:29:01.600Z,12.90
2017-09-04T08:31:28.222Z,12.87
2017-09-04T08:33:54.894Z,13.30
2017-09-04T08:36:21.552Z,14.27
2017-09-04T08:38:48.202Z,12.60
2017-09-04T08:41:14.831Z,11.60
2017-09-04T08:43:41.477Z,11.13
2017-09-04T08:46:08.122Z,11.87
2017-09-04T08:48:34.736Z,11.00
2017-09-04T08:51:01.397Z,13.20
2017-09-04T08:53:28.031Z,13.10
2017-09-04T08:55:54.674Z,13.17
2017-09-04T08:58:21.302Z,12.47
2017-09-04T09:00:47.952Z,11.03
2017-09-04T09:03:14.608Z,12.80
2017-09-04T09:05:41.232Z,13.60
2017-09-04T09:08:07.866Z,12.00
2017-09-04T09:10:34.514Z,12.40
2017-09-04T09:13:01.156Z,11.60
2017-09-04T09:15:27.814Z,13.10
2017-09-04T09:17:54.459Z,11.07
2017-09-04T09:20:21.078Z,10.47
2017-09-04T09:22:47.719Z,10.90
2017-09-04T09:25:14.343Z,11.60
2017-09-04T09:27:40.986Z,12.70
2017-09-04T09:30:07.607Z,10.40
2017-09-04T09:32:34.270Z,10.37
2017-09-04T09:35:00.892Z,11.10
2017-09-04T09:37:27.540Z,12.97
2017-09-04T09:39:54.147Z,10.30
2017-09-04T09:42:20.786Z,10.07
2017-09-04T09:44:47.420Z,9.23
2017-09-04T09:47:14.032Z,7.90
2017-09-04T09:49:40.673Z,7.83
2017-09-04T09:52:07.313Z,8.87
2017-09-04T09:54:33.926Z,7.80
2017-09-04T09:57:00.567Z,7.87
2017-09-04T09:59:27.194Z,7.37
2017-09-04T10:01:53.833Z,5.73
2017-09-04T10:04:20.454Z,4.70
2017-09-04T10:06:47.075Z,5.57
2017-09-04T10:09:13.712Z,6.10
2017-09-04T10:11:40.315Z,6.70
2017-09-04T10:14:06.965Z,5.57
2017-09-04T10:16:33.601Z,4.90
2017-09-04T10:19:00.230Z,5.17
2017-09-04T10:21:26.872Z,6.17
2017-09-04T10:23:53.509Z,5.90
2017-09-04T10:26:20.159Z,5.57
2017-09-04T10:28:46.775Z,4.70
2017-09-04T10:31:13.389Z,4.93
2017-09-04T10:33:40.015Z,4.80
2017-09-04T10:36:06.737Z,5.27
2017-09-04T10:38:33.396Z,5.10
2017-09-04T10:41:00.018Z,3.73
2017-09-04T10:43:26.683Z,4.90
2017-09-04T10:45:53.313Z,5.00
2017-09-04T10:48:19.916Z,4.70
2017-09-04T10:50:46.575Z,4.93
2017-09-04T10:53:13.205Z,5.27
2017-09-04T10:55:39.807Z,5.30
2017-09-04T10:58:06.445Z,5.50
2017-09-04T11:00:33.070Z,5.13
2017-09-04T11:02:59.687Z,6.00
2017-09-04T11:05:26.319Z,5.50
2017-09-04T11:07:52.983Z,4.67
2017-09-04T11:10:19.594Z,5.50
2017-09-04T11:12:46.231Z,5.23
2017-09-04T11:15:12.876Z,4.53
2017-09-04T11:17:39.704Z,4.20
2017-09-04T11:20:06.349Z,5.50
2017-09-04T11:22:32.957Z,5.63
2017-09-04T11:24:59.588Z,5.43
2017-09-04T11:27:26.210Z,5.50
2017-09-04T11:29:52.842Z,6.00
2017-09-04T11:32:19.472Z,5.57
2017-09-04T11:34:46.145Z,5.10
2017-09-04T11:37:12.788Z,7.60
2017-09-04T11:39:39.430Z,6.47
2017-09-04T11:42:06.050Z,7.17
2017-09-04T11:44:32.684Z,6.40
2017-09-04T11:46:59.291Z,6.60
2017-09-04T11:49:25.947Z,6.17
2017-09-04T11:51:52.564Z,5.93
2017-09-04T11:54:19.205Z,6.47
2017-09-04T11:56:45.966Z,5.70
2017-09-04T11:59:12.613Z,6.00
2017-09-04T12:01:39.235Z,5.00
2017-09-04T12:04:05.859Z,5.00
2017-09-04T12:06:33.442Z,4.60
2017-09-04T12:09:00.059Z,4.40
2017-09-04T12:11:26.686Z,5.67
2017-09-04T12:13:53.289Z,5.70
2017-09-04T12:16:19.914Z,4.80
2017-09-04T12:18:46.550Z,5.70
2017-09-04T12:21:13.167Z,4.13
2017-09-04T12:23:39.807Z,4.50
2017-09-04T12:26:06.435Z,4.57
2017-09-04T12:28:33.074Z,5.17
2017-09-04T12:30:59.698Z,3.90
2017-09-04T12:33:26.300Z,4.97
2017-09-04T12:35:52.933Z,4.63
2017-09-04T12:38:19.551Z,4.90
2017-09-04T12:40:46.195Z,3.70
2017-09-04T12:43:12.811Z,4.00
2017-09-04T12:45:39.446Z,4.87
2017-09-04T12:48:06.091Z,4.30
2017-09-04T12:50:32.749Z,4.20
2017-09-04T12:53:00.014Z,4.07
2017-09-04T12:55:26.992Z,3.10
2017-09-04T12:57:53.626Z,3.70
2017-09-04T13:00:20.266Z,3.80
2017-09-04T13:02:46.884Z,3.53
2017-09-04T13:05:13.536Z,3.70
2017-09-04T13:07:40.164Z,3.20
2017-09-04T13:10:12.514Z,2.80
2017-09-04T13:12:39.137Z,2.97
2017-09-04T13:15:11.476Z,3.50
2017-09-04T13:17:43.791Z,3.27
2017-09-04T13:20:16.147Z,2.73
2017-09-04T13:22:48.594Z,3.40
2017-09-04T13:25:20.942Z,3.70
2017-09-04T13:27:48.302Z,2.83
2017-09-04T13:30:20.710Z,2.70
2017-09-04T13:32:54.939Z,3.00
2017-09-04T13:35:27.421Z,2.30
2017-09-04T13:37:58.235Z,3.03
2017-09-04T13:40:40.716Z,1.97
2017-09-04T13:43:22.625Z,2.10
2017-09-04T13:46:05.047Z,2.23
2017-09-04T13:48:37.492Z,2.33
2017-09-04T13:51:04.809Z,2.30
2017-09-04T13:53:37.259Z,2.40
2017-09-04T13:56:07.538Z,3.00
2017-09-04T13:58:36.083Z,2.13
2017-09-04T14:01:08.377Z,2.63
2017-09-04T14:03:54.879Z,3.00
2017-09-04T14:06:21.507Z,2.30
2017-09-04T14:08:53.888Z,2.83
2017-09-04T14:11:36.296Z,3.03
2017-09-04T14:14:08.639Z,3.83
2017-09-04T14:16:52.004Z,3.03
2017-09-04T14:19:18.650Z,2.70
2017-09-04T14:21:45.392Z,3.67
2017-09-04T14:24:12.057Z,3.63
2017-09-04T14:26:38.708Z,3.50
2017-09-04T14:29:05.338Z,3.13
2017-09-04T14:31:31.958Z,3.67
2017-09-04T14:33:58.606Z,2.83
2017-09-04T14:36:25.227Z,2.67
2017-09-04T14:38:51.827Z,3.10
2017-09-04T14:41:20.283Z,2.90
2017-09-04T14:44:02.658Z,2.90
2017-09-04T14:46:34.950Z,2.83
2017-09-04T14:49:01.606Z,3.30
2017-09-04T14:51:28.228Z,2.83
2017-09-04T14:53:54.855Z,2.60
2017-09-04T14:56:21.493Z,2.30
2017-09-04T14:58:48.139Z,2.60
2017-09-04T15:01:15.294Z,2.70
2017-09-04T15:03:42.011Z,3.77
2017-09-04T15:06:08.665Z,2.97
2017-09-04T15:08:35.303Z,2.87
2017-09-04T15:11:01.972Z,3.57
2017-09-04T15:13:28.560Z,2.67
2017-09-04T15:15:55.190Z,2.63
2017-09-04T15:18:21.834Z,3.30
2017-09-04T15:20:48.442Z,3.37
2017-09-04T15:23:15.083Z,2.83
2017-09-04T15:25:41.707Z,3.57
2017-09-04T15:28:08.352Z,2.90
2017-09-04T15:30:35.191Z,3.40
2017-09-04T15:33:01.815Z,2.60
2017-09-04T15:35:28.450Z,3.73
2017-09-04T15:37:55.143Z,3.67
2017-09-04T15:40:21.775Z,3.10
2017-09-04T15:42:48.411Z,3.50
2017-09-04T15:45:15.015Z,3.57
2017-09-04T15:47:41.652Z,3.43
2017-09-04T15:50:08.294Z,2.80
2017-09-04T15:52:34.936Z,3.50
2017-09-04T15:55:01.560Z,3.13
2017-09-04T15:57:28.228Z,2.60
2017-09-04T15:59:54.839Z,2.67
2017-09-04T16:02:21.489Z,2.33
2017-09-04T16:04:48.103Z,2.60
2017-09-04T16:07:16.227Z,2.30
2017-09-04T16:09:42.855Z,3.00
2017-09-04T16:12:10.391Z,2.50
2017-09-04T16:14:37.003Z,3.30
2017-09-04T16:17:24.295Z,3.20
2017-09-04T16:19:55.483Z,2.60
2017-09-04T16:22:38.833Z,2.33
2017-09-04T16:25:05.467Z,2.80
2017-09-04T16:27:47.011Z,1.80
2017-09-04T16:30:18.271Z,2.50
2017-09-04T16:32:50.639Z,2.17
2017-09-04T16:35:17.906Z,3.00
2017-09-04T16:37:45.255Z,3.00
2017-09-04T16:40:11.896Z,2.23
2017-09-04T16:42:41.220Z,2.63
2017-09-04T16:45:07.844Z,2.77
2017-09-04T16:47:39.043Z,2.37
2017-09-04T16:50:06.230Z,2.97
2017-09-04T16:52:35.548Z,2.37
2017-09-04T16:55:17.072Z,2.37
2017-09-04T16:57:43.707Z,2.20
2017-09-04T17:00:10.355Z,2.40
2017-09-04T17:02:36.992Z,2.50
2017-09-04T17:05:03.629Z,2.50
2017-09-04T17:07:30.250Z,2.93
2017-09-04T17:09:56.858Z,2.43
2017-09-04T17:12:38.380Z,2.73
2017-09-04T17:15:05.907Z,2.67
2017-09-04T17:17:33.495Z,2.70
2017-09-04T17:20:05.680Z,2.10
2017-09-04T17:22:32.312Z,2.60
2017-09-04T17:24:58.931Z,2.77
2017-09-04T17:27:25.543Z,3.33
2017-09-04T17:29:52.168Z,2.67
2017-09-04T17:32:18.799Z,2.70
2017-09-04T17:34:45.432Z,3.23
2017-09-04T17:37:12.067Z,3.10
2017-09-04T17:39:38.695Z,3.43
2017-09-04T17:42:05.349Z,2.97
2017-09-04T17:44:32.063Z,2.70
2017-09-04T17:46:58.719Z,2.97
2017-09-04T17:49:25.341Z,2.53
2017-09-04T17:51:51.966Z,3.10
2017-09-04T17:54:18.626Z,3.10
2017-09-04T17:56:45.231Z,3.80
2017-09-04T17:59:11.871Z,3.27
2017-09-04T18:01:38.509Z,2.90
2017-09-04T18:04:05.160Z,3.03
2017-09-04T18:06:31.824Z,3.43
2017-09-04T18:08:58.448Z,2.90
2017-09-04T18:11:25.120Z,3.07
2017-09-04T18:13:51.741Z,3.67
2017-09-04T18:16:18.487Z,3.57
2017-09-04T18:18:45.125Z,2.97
2017-09-04T18:21:11.793Z,3.50
2017-09-04T18:23:38.418Z,3.47
2017-09-04T18:26:05.102Z,3.73
2017-09-04T18:28:31.772Z,2.50
2017-09-04T18:30:58.395Z,2.43
2017-09-04T18:33:25.048Z,2.83
2017-09-04T18:35:51.715Z,2.70
2017-09-04T18:38:18.386Z,2.30
2017-09-04T18:40:45.072Z,1.87
2017-09-04T18:43:11.697Z,1.90
2017-09-04T18:45:38.332Z,2.13
2017-09-04T18:48:05.007Z,1.50
2017-09-04T18:50:31.652Z,1.93
2017-09-04T18:52:58.308Z,2.13
2017-09-04T18:55:24.928Z,2.00
2017-09-04T18:57:51.581Z,1.83
2017-09-04T19:00:18.209Z,2.00
2017-09-04T19:02:44.810Z,2.10
2017-09-04T19:05:11.468Z,2.30
2017-09-04T19:07:38.117Z,2.30
2017-09-04T19:10:04.740Z,2.00
2017-09-04T19:12:31.400Z,2.57
2017-09-04T19:14:58.037Z,2.83
2017-09-04T19:17:24.694Z,2.53
2017-09-04T19:19:52.121Z,2.70
2017-09-04T19:22:18.768Z,2.30
2017-09-04T19:24:45.384Z,2.07
2017-09-04T19:27:11.997Z,2.20
2017-09-04T19:29:38.638Z,2.40
2017-09-04T19:32:05.305Z,2.30
2017-09-04T19:34:31.966Z,2.97
2017-09-04T19:36:58.589Z,2.40
2017-09-04T19:39:25.246Z,3.03
2017-09-04T19:41:51.875Z,2.50
2017-09-04T19:44:18.488Z,2.63
2017-09-04T19:46:45.134Z,2.20
2017-09-04T19:49:11.747Z,2.53
2017-09-04T19:51:38.386Z,2.87
2017-09-04T19:54:05.023Z,2.73
2017-09-04T19:56:31.645Z,3.00
2017-09-04T19:58:58.275Z,2.37
2017-09-04T20:01:24.981Z,3.17
2017-09-04T20:03:51.647Z,3.10
2017-09-04T20:06:18.271Z,2.70
2017-09-04T20:08:44.916Z,2.80
2017-09-04T20:11:11.589Z,3.13
2017-09-04T20:13:38.216Z,2.30
2017-09-04T20:16:04.848Z,2.47
2017-09-04T20:18:31.468Z,3.10
2017-09-04T20:20:58.080Z,2.60
2017-09-04T20:23:24.761Z,3.60
2017-09-04T20:25:51.364Z,2.13
2017-09-04T20:28:18.011Z,3.60
2017-09-04T20:30:44.625Z,2.33
2017-09-04T20:33:11.283Z,3.10
2017-09-04T20:35:37.920Z,2.97
2017-09-04T20:38:04.528Z,2.63
2017-09-04T20:40:31.159Z,2.30
2017-09-04T20:42:57.784Z,3.27
2017-09-04T20:45:24.410Z,2.80
2017-09-04T20:47:51.022Z,2.80
2017-09-04T20:50:17.636Z,3.17
2017-09-04T20:52:44.278Z,2.40
2017-09-04T20:55:10.897Z,2.67
2017-09-04T20:57:37.514Z,2.77
2017-09-04T21:00:04.167Z,3.13
2017-09-04T21:02:30.773Z,3.80
2017-09-04T21:04:57.442Z,2.80
2017-09-04T21:07:24.101Z,3.00
2017-09-04T21:09:50.727Z,2.50
2017-09-04T21:12:17.360Z,2.60
2017-09-04T21:14:43.989Z,3.20
2017-09-04T21:17:10.621Z,3.10
2017-09-04T21:19:37.230Z,3.10
2017-09-04T21:22:03.866Z,3.53
2017-09-04T21:24:30.498Z,3.40
2017-09-04T21:26:57.122Z,3.27
2017-09-04T21:29:23.770Z,4.57
2017-09-04T21:31:50.387Z,3.50
2017-09-04T21:34:17.028Z,4.10
2017-09-04T21:36:43.671Z,4.03
2017-09-04T21:39:10.289Z,3.50
2017-09-04T21:41:36.957Z,3.30
2017-09-04T21:44:03.600Z,3.57
2017-09-04T21:46:30.207Z,4.30
2017-09-04T21:48:56.821Z,4.23
2017-09-04T21:51:23.455Z,4.07
2017-09-04T21:53:50.070Z,4.37
2017-09-04T21:56:16.736Z,4.63
2017-09-04T21:58:43.346Z,4.10
2017-09-04T22:01:09.963Z,4.23
2017-09-04T22:03:36.596Z,4.87
2017-09-04T22:06:03.199Z,4.77
2017-09-04T22:08:29.841Z,4.83
2017-09-04T22:10:56.460Z,4.23
2017-09-04T22:13:23.106Z,4.53
2017-09-04T22:15:49.706Z,4.40
2017-09-04T22:18:16.343Z,4.30
2017-09-04T22:20:42.951Z,4.70
2017-09-04T22:23:09.585Z,4.80
2017-09-04T22:25:36.218Z,5.97
2017-09-04T22:28:02.870Z,6.00
2017-09-04T22:30:29.506Z,5.27
2017-09-04T22:32:56.139Z,5.30
2017-09-04T22:35:22.756Z,6.73
2017-09-04T22:37:49.395Z,6.20
2017-09-04T22:40:16.036Z,5.23
2017-09-04T22:42:42.660Z,4.97
2017-09-04T22:45:12.341Z,5.50
2017-09-04T22:47:38.958Z,5.97
2017-09-04T22:50:05.611Z,5.10
2017-09-04T22:52:32.243Z,5.10
2017-09-04T22:54:58.870Z,5.67
2017-09-04T22:57:25.527Z,6.57
2017-09-04T22:59:52.127Z,5.63
2017-09-04T23:02:18.738Z,5.43
2017-09-04T23:04:45.370Z,7.07
2017-09-04T23:07:11.988Z,7.30
2017-09-04T23:09:38.636Z,6.00
2017-09-04T23:12:05.246Z,6.20
2017-09-04T23:14:31.872Z,7.00
2017-09-04T23:16:58.497Z,5.50
2017-09-04T23:19:25.125Z,5.73
2017-09-04T23:21:51.737Z,5.67
2017-09-04T23:24:18.351Z,6.00
2017-09-04T23:26:44.981Z,5.10
2017-09-04T23:29:11.599Z,5.73
2017-09-04T23:31:38.592Z,5.30
2017-09-04T23:34:05.223Z,4.90
2017-09-04T23:36:31.835Z,5.40
2017-09-04T23:38:58.499Z,5.33
2017-09-04T23:41:25.132Z,4.33
2017-09-04T23:43:51.776Z,4.80
2017-09-04T23:46:18.388Z,5.33
2017-09-04T23:48:45.000Z,5.23
2017-09-04T23:51:11.616Z,5.23
2017-09-04T23:53:38.241Z,4.80
2017-09-04T23:56:04.907Z,4.53
2017-09-04T23:58:31.521Z,5.50
